createdAt,value
2022-11-30T00:01:46.003Z,-14.28
2022-11-30T00:04:15.179Z,-14.31
2022-11-30T00:06:44.383Z,-14.28
2022-11-30T00:09:13.507Z,-14.26
2022-11-30T00:11:42.549Z,-14.30
2022-11-30T00:14:12.888Z,-14.29
2022-11-30T00:16:42.065Z,-14.28
2022-11-30T00:19:11.062Z,-14.26
2022-11-30T00:21:40.111Z,-14.26
2022-11-30T00:24:09.455Z,-14.32
2022-11-30T00:26:38.772Z,-14.32
2022-11-30T00:29:07.725Z,-14.27
2022-11-30T00:31:38.067Z,-14.32
2022-11-30T00:34:07.068Z,-14.35
2022-11-30T00:36:36.147Z,-14.37
2022-11-30T00:39:05.464Z,-14.39
2022-11-30T00:41:34.465Z,-14.40
2022-11-30T00:44:03.431Z,-14.39
2022-11-30T00:46:32.571Z,-14.39
2022-11-30T00:49:02.997Z,-14.38
2022-11-30T00:51:32.038Z,-14.38
2022-11-30T00:54:00.992Z,-14.37
2022-11-30T00:56:30.075Z,-14.38
2022-11-30T00:58:59.023Z,-14.38
2022-11-30T01:01:28.020Z,-14.44
2022-11-30T01:03:57.070Z,-14.45
2022-11-30T01:06:30.072Z,-14.47
2022-11-30T01:08:59.958Z,-14.45
2022-11-30T01:11:30.436Z,-14.45
2022-11-30T01:14:02.393Z,-14.51
2022-11-30T01:16:33.454Z,-14.51
2022-11-30T01:19:02.700Z,-14.51
2022-11-30T01:21:33.221Z,-14.53
2022-11-30T01:24:02.323Z,-14.54
2022-11-30T01:26:31.295Z,-14.54
2022-11-30T01:29:00.278Z,-14.55
2022-11-30T01:31:29.268Z,-14.57
2022-11-30T01:33:58.246Z,-14.58
2022-11-30T01:36:28.023Z,-14.59
2022-11-30T01:38:59.440Z,-14.59
2022-11-30T01:41:32.986Z,-14.63
2022-11-30T01:44:35.129Z,-14.61
2022-11-30T01:47:07.222Z,-14.64
2022-11-30T01:49:39.378Z,-14.63
2022-11-30T01:52:13.066Z,-14.63
2022-11-30T01:54:48.645Z,-14.66
2022-11-30T01:57:23.257Z,-14.71
2022-11-30T01:59:54.523Z,-14.75
2022-11-30T02:02:28.414Z,-14.80
2022-11-30T02:04:57.858Z,-14.78
2022-11-30T02:07:27.244Z,-14.79
2022-11-30T02:09:57.709Z,-14.78
2022-11-30T02:12:38.811Z,-14.75
2022-11-30T02:15:13.291Z,-14.75
2022-11-30T02:17:53.127Z,-14.75
2022-11-30T02:20:48.107Z,-14.75
2022-11-30T02:23:42.988Z,-14.76
2022-11-30T02:26:20.807Z,-14.78
2022-11-30T02:29:14.911Z,-14.80
2022-11-30T02:31:50.844Z,-14.79
2022-11-30T02:34:21.995Z,-14.79
2022-11-30T02:36:51.948Z,-14.81
2022-11-30T02:39:22.751Z,-14.80
2022-11-30T02:41:51.677Z,-14.82
2022-11-30T02:44:24.101Z,-14.81
2022-11-30T02:47:06.460Z,-14.81
2022-11-30T02:49:42.325Z,-14.82
2022-11-30T02:52:12.604Z,-14.85
2022-11-30T02:54:41.744Z,-14.88
2022-11-30T02:57:11.522Z,-14.87
2022-11-30T02:59:42.513Z,-14.85
2022-11-30T03:02:11.863Z,-14.89
2022-11-30T03:04:40.821Z,-14.87
2022-11-30T03:07:09.857Z,-14.88
2022-11-30T03:09:38.778Z,-14.89
2022-11-30T03:12:08.148Z,-14.91
2022-11-30T03:14:37.116Z,-14.96
2022-11-30T03:17:07.759Z,-14.96
2022-11-30T03:19:36.784Z,-15.00
2022-11-30T03:22:05.938Z,-15.01
2022-11-30T03:24:34.865Z,-14.99
2022-11-30T03:27:03.815Z,-15.00
2022-11-30T03:29:32.844Z,-15.04
2022-11-30T03:32:01.762Z,-15.05
2022-11-30T03:34:32.352Z,-15.06
2022-11-30T03:37:01.267Z,-15.07
2022-11-30T03:39:30.402Z,-15.06
2022-11-30T03:41:59.566Z,-15.05
2022-11-30T03:44:29.933Z,-15.09
2022-11-30T03:46:58.893Z,-15.07
2022-11-30T03:49:27.976Z,-15.05
2022-11-30T03:51:58.325Z,-15.09
2022-11-30T03:54:27.273Z,-15.11
2022-11-30T03:56:56.282Z,-15.08
2022-11-30T03:59:25.187Z,-15.06
2022-11-30T04:01:54.232Z,-15.10
2022-11-30T04:04:23.383Z,-15.12
2022-11-30T04:06:52.590Z,-15.15
2022-11-30T04:09:23.099Z,-15.18
2022-11-30T04:11:52.004Z,-15.20
2022-11-30T04:14:20.981Z,-15.23
2022-11-30T04:16:50.006Z,-15.25
2022-11-30T04:19:18.914Z,-15.25
2022-11-30T04:21:47.952Z,-15.24
2022-11-30T04:24:16.884Z,-15.25
2022-11-30T04:26:47.417Z,-15.29
2022-11-30T04:29:16.511Z,-15.30
2022-11-30T04:31:45.576Z,-15.33
2022-11-30T04:34:14.678Z,-15.29
2022-11-30T04:36:43.649Z,-15.31
2022-11-30T04:39:12.679Z,-15.32
2022-11-30T04:41:41.612Z,-15.36
2022-11-30T04:44:12.052Z,-15.38
2022-11-30T04:46:41.037Z,-15.40
2022-11-30T04:49:10.150Z,-15.41
2022-11-30T04:51:39.156Z,-15.39
2022-11-30T04:54:08.251Z,-15.31
2022-11-30T04:56:37.238Z,-15.35
2022-11-30T04:59:06.214Z,-15.39
2022-11-30T05:01:36.599Z,-15.42
2022-11-30T05:04:05.826Z,-15.38
2022-11-30T05:06:34.911Z,-15.44
2022-11-30T05:09:03.843Z,-15.44
2022-11-30T05:11:32.929Z,-15.43
2022-11-30T05:14:02.121Z,-15.39
2022-11-30T05:16:31.131Z,-15.41
2022-11-30T05:19:01.600Z,-15.41
2022-11-30T05:21:30.556Z,-15.37
2022-11-30T05:23:59.720Z,-15.28
2022-11-30T05:26:28.686Z,-15.37
2022-11-30T05:28:57.696Z,-15.45
2022-11-30T05:31:26.917Z,-15.48
2022-11-30T05:33:56.116Z,-15.46
2022-11-30T05:36:26.724Z,-15.42
2022-11-30T05:38:55.815Z,-15.40
2022-11-30T05:41:24.855Z,-15.41
2022-11-30T05:43:54.063Z,-15.40
2022-11-30T05:46:23.064Z,-15.38
2022-11-30T05:48:52.053Z,-15.37
2022-11-30T05:51:21.927Z,-15.36
2022-11-30T05:53:52.258Z,-15.29
2022-11-30T05:56:23.013Z,-15.26
2022-11-30T05:58:52.207Z,-15.23
2022-11-30T06:01:22.911Z,-15.18
2022-11-30T06:03:52.342Z,-15.11
2022-11-30T06:06:22.115Z,-15.08
2022-11-30T06:08:52.628Z,-15.04
2022-11-30T06:11:21.556Z,-14.96
2022-11-30T06:13:50.506Z,-14.88
2022-11-30T06:16:19.504Z,-14.87
2022-11-30T06:18:48.613Z,-14.79
2022-11-30T06:21:23.975Z,-14.75
2022-11-30T06:23:54.975Z,-14.70
2022-11-30T06:26:24.090Z,-14.56
2022-11-30T06:28:53.099Z,-14.44
2022-11-30T06:31:22.359Z,-14.46
2022-11-30T06:33:51.505Z,-14.44
2022-11-30T06:36:23.928Z,-14.40
2022-11-30T06:38:54.515Z,-14.34
2022-11-30T06:41:23.605Z,-14.26
2022-11-30T06:43:52.544Z,-14.19
2022-11-30T06:46:22.341Z,-14.07
2022-11-30T06:48:51.929Z,-14.01
2022-11-30T06:51:21.414Z,-13.95
2022-11-30T06:53:50.329Z,-13.90
2022-11-30T06:56:23.118Z,-13.85
2022-11-30T06:58:54.439Z,-13.79
2022-11-30T07:01:23.911Z,-13.72
2022-11-30T07:03:53.530Z,-13.65
2022-11-30T07:06:22.601Z,-13.57
2022-11-30T07:08:51.577Z,-13.51
2022-11-30T07:11:22.001Z,-13.41
2022-11-30T07:13:50.906Z,-13.31
2022-11-30T07:16:19.983Z,-13.21
2022-11-30T07:18:48.961Z,-13.14
2022-11-30T07:21:17.945Z,-13.09
2022-11-30T07:24:04.365Z,-12.99
2022-11-30T07:26:35.084Z,-12.90
2022-11-30T07:29:05.385Z,-12.82
2022-11-30T07:31:35.707Z,-12.71
2022-11-30T07:34:06.953Z,-12.68
2022-11-30T07:36:37.574Z,-12.62
2022-11-30T07:39:06.694Z,-12.59
2022-11-30T07:41:37.062Z,-12.48
2022-11-30T07:44:06.813Z,-12.39
2022-11-30T07:46:36.467Z,-12.30
2022-11-30T07:49:06.126Z,-12.27
2022-11-30T07:51:35.218Z,-11.95
2022-11-30T07:54:04.377Z,-11.70
2022-11-30T07:56:33.698Z,-11.82
2022-11-30T07:59:05.063Z,-11.63
2022-11-30T08:01:34.964Z,-11.59
2022-11-30T08:04:04.313Z,-11.49
2022-11-30T08:06:34.699Z,-11.51
2022-11-30T08:09:05.321Z,-11.42
2022-11-30T08:11:37.154Z,-11.46
2022-11-30T08:14:07.533Z,-11.30
2022-11-30T08:16:39.106Z,-11.19
2022-11-30T08:19:08.402Z,-11.00
2022-11-30T08:21:38.212Z,-10.82
2022-11-30T08:24:07.728Z,-10.74
2022-11-30T08:28:46.251Z,-10.58
2022-11-30T08:31:17.928Z,-10.51
2022-11-30T08:33:47.428Z,-10.58
2022-11-30T08:36:17.644Z,-10.63
2022-11-30T08:38:47.513Z,-10.61
2022-11-30T08:41:19.875Z,-10.59
2022-11-30T08:43:51.251Z,-10.44
2022-11-30T08:49:27.086Z,-10.33
2022-11-30T08:54:47.444Z,-10.13
2022-11-30T08:57:17.551Z,-10.13
2022-11-30T08:59:48.752Z,-10.11
2022-11-30T09:02:19.725Z,-10.06
2022-11-30T09:04:51.313Z,-9.95
2022-11-30T09:07:20.384Z,-9.77
2022-11-30T09:09:49.476Z,-9.72
2022-11-30T09:12:18.481Z,-9.78
2022-11-30T09:14:55.588Z,-9.67
2022-11-30T09:17:26.674Z,-9.73
2022-11-30T09:19:56.149Z,-9.59
2022-11-30T09:22:25.351Z,-9.54
2022-11-30T09:24:54.489Z,-9.45
2022-11-30T09:27:23.696Z,-9.38
2022-11-30T09:29:53.991Z,-9.31
2022-11-30T09:32:22.934Z,-9.27
2022-11-30T09:34:52.249Z,-9.28
2022-11-30T09:37:22.252Z,-9.13
2022-11-30T09:39:51.248Z,-9.09
2022-11-30T09:42:40.483Z,-9.09
2022-11-30T09:45:17.138Z,-9.03
2022-11-30T09:48:23.768Z,-8.94
2022-11-30T09:50:54.508Z,-8.88
2022-11-30T09:57:42.809Z,-8.70
2022-11-30T10:00:15.990Z,-8.63
2022-11-30T10:02:45.514Z,-8.59
2022-11-30T10:05:16.280Z,-8.59
2022-11-30T10:07:57.661Z,-8.50
2022-11-30T10:10:35.799Z,-8.50
2022-11-30T10:13:19.045Z,-8.51
2022-11-30T10:16:01.615Z,-8.38
2022-11-30T10:18:42.292Z,-8.37
2022-11-30T10:21:25.935Z,-8.29
2022-11-30T10:24:09.452Z,-8.34
2022-11-30T10:26:42.024Z,-8.31
2022-11-30T10:29:19.345Z,-8.32
2022-11-30T10:31:53.355Z,-8.19
2022-11-30T10:34:24.549Z,-8.22
2022-11-30T10:37:02.614Z,-8.29
2022-11-30T10:39:35.818Z,-8.30
2022-11-30T10:42:11.354Z,-8.27
2022-11-30T10:44:43.626Z,-8.32
2022-11-30T10:47:19.956Z,-8.30
2022-11-30T10:49:52.855Z,-8.29
2022-11-30T10:52:26.432Z,-8.30
2022-11-30T10:55:03.745Z,-8.31
2022-11-30T10:57:34.766Z,-8.32
2022-11-30T11:00:08.686Z,-8.22
2022-11-30T11:02:45.845Z,-8.21
2022-11-30T11:05:21.693Z,-8.25
2022-11-30T11:08:00.025Z,-8.24
2022-11-30T11:10:36.492Z,-8.28
2022-11-30T11:13:06.700Z,-8.23
2022-11-30T11:15:36.484Z,-8.22
2022-11-30T11:18:26.261Z,-8.20
2022-11-30T11:21:06.302Z,-8.26
2022-11-30T11:23:39.573Z,-8.36
2022-11-30T11:26:17.048Z,-8.40
2022-11-30T11:28:47.464Z,-8.50
2022-11-30T11:31:21.045Z,-8.54
2022-11-30T11:33:55.627Z,-8.53
2022-11-30T11:36:28.380Z,-8.56
2022-11-30T11:38:58.004Z,-8.56
2022-11-30T11:41:29.611Z,-8.61
2022-11-30T11:44:03.019Z,-8.59
2022-11-30T11:46:33.309Z,-8.59
2022-11-30T11:49:05.907Z,-8.60
2022-11-30T11:51:36.763Z,-8.64
2022-11-30T11:54:14.746Z,-8.64
2022-11-30T11:56:44.005Z,-8.55
2022-11-30T11:59:19.286Z,-8.41
2022-11-30T12:01:59.548Z,-8.45
2022-11-30T12:04:46.983Z,-8.61
2022-11-30T12:07:26.863Z,-8.76
2022-11-30T12:10:49.561Z,-8.86
2022-11-30T12:13:03.218Z,-8.95
2022-11-30T12:15:38.048Z,-9.04
2022-11-30T12:18:23.739Z,-9.17
2022-11-30T12:21:01.854Z,-9.27
2022-11-30T12:24:00.644Z,-9.03
2022-11-30T12:26:38.005Z,-9.10
2022-11-30T12:29:25.314Z,-8.92
2022-11-30T12:32:08.437Z,-9.17
2022-11-30T12:35:02.999Z,-9.37
2022-11-30T12:37:47.703Z,-9.47
2022-11-30T12:40:27.816Z,-9.58
2022-11-30T12:43:05.646Z,-9.68
2022-11-30T12:45:38.663Z,-9.76
2022-11-30T12:48:19.480Z,-9.83
2022-11-30T12:51:08.270Z,-9.88
2022-11-30T12:53:43.314Z,-9.85
2022-11-30T12:56:20.808Z,-9.89
2022-11-30T12:58:57.832Z,-10.02
2022-11-30T13:01:42.608Z,-10.23
2022-11-30T13:04:17.716Z,-10.46
2022-11-30T13:06:48.115Z,-10.57
2022-11-30T13:09:26.327Z,-10.64
2022-11-30T13:12:00.665Z,-10.74
2022-11-30T13:14:31.540Z,-10.83
2022-11-30T13:17:04.072Z,-10.91
2022-11-30T13:19:59.362Z,-10.96
2022-11-30T13:22:38.155Z,-11.03
2022-11-30T13:25:44.963Z,-11.07
2022-11-30T13:28:19.836Z,-11.08
2022-11-30T13:30:55.681Z,-11.08
2022-11-30T13:33:49.517Z,-11.05
2022-11-30T13:36:33.045Z,-11.05
2022-11-30T13:39:26.864Z,-11.04
2022-11-30T13:42:39.159Z,-11.14
2022-11-30T13:45:30.383Z,-11.23
2022-11-30T13:48:00.294Z,-11.29
2022-11-30T13:50:38.253Z,-11.27
2022-11-30T13:53:21.462Z,-11.28
2022-11-30T13:56:00.913Z,-11.34
2022-11-30T13:58:32.273Z,-11.41
2022-11-30T14:01:21.248Z,-11.50
2022-11-30T14:04:23.904Z,-11.55
2022-11-30T14:06:55.464Z,-11.58
2022-11-30T14:09:58.413Z,-11.57
2022-11-30T14:13:01.030Z,-11.65
2022-11-30T14:15:56.774Z,-11.68
2022-11-30T14:18:42.537Z,-11.70
2022-11-30T14:21:18.796Z,-11.73
2022-11-30T14:23:59.021Z,-11.76
2022-11-30T14:26:36.346Z,-11.75
2022-11-30T14:29:17.827Z,-11.73
2022-11-30T14:31:55.785Z,-11.71
2022-11-30T14:34:28.441Z,-11.71
2022-11-30T14:37:01.802Z,-11.69
2022-11-30T14:39:36.075Z,-11.63
2022-11-30T14:42:07.799Z,-11.60
2022-11-30T14:44:38.010Z,-11.58
2022-11-30T14:47:22.430Z,-11.58
2022-11-30T14:49:53.159Z,-11.63
2022-11-30T14:52:43.401Z,-11.67
2022-11-30T14:55:22.040Z,-11.69
2022-11-30T14:58:02.567Z,-11.69
2022-11-30T15:00:39.273Z,-11.70
2022-11-30T15:03:20.297Z,-11.71
2022-11-30T15:05:53.360Z,-11.75
2022-11-30T15:08:23.151Z,-11.83
2022-11-30T15:10:52.524Z,-11.83
2022-11-30T15:13:22.035Z,-11.83
2022-11-30T15:15:53.460Z,-11.77
2022-11-30T15:18:25.347Z,-11.77
2022-11-30T15:21:00.005Z,-11.76
2022-11-30T15:23:29.908Z,-11.78
2022-11-30T15:26:02.521Z,-11.64
2022-11-30T15:28:35.517Z,-11.59
2022-11-30T15:31:08.175Z,-11.70
2022-11-30T15:33:43.970Z,-11.78
2022-11-30T15:36:31.397Z,-11.80
2022-11-30T15:39:03.805Z,-11.85
2022-11-30T15:41:35.319Z,-11.90
2022-11-30T15:44:04.679Z,-11.90
2022-11-30T15:46:41.205Z,-12.03
2022-11-30T15:49:21.055Z,-12.11
2022-11-30T15:52:00.879Z,-12.10
2022-11-30T15:54:47.478Z,-12.12
2022-11-30T15:57:18.143Z,-12.15
2022-11-30T16:00:07.038Z,-12.16
2022-11-30T16:02:38.440Z,-12.24
2022-11-30T16:05:25.620Z,-12.29
2022-11-30T16:07:59.834Z,-12.28
2022-11-30T16:10:31.362Z,-12.29
2022-11-30T16:13:00.981Z,-12.36
2022-11-30T16:15:34.102Z,-12.38
2022-11-30T16:18:14.787Z,-12.39
2022-11-30T16:20:49.054Z,-12.42
2022-11-30T16:23:19.249Z,-12.44
2022-11-30T16:25:50.603Z,-12.47
2022-11-30T16:28:21.306Z,-12.52
2022-11-30T16:30:51.164Z,-12.50
2022-11-30T16:33:23.773Z,-12.57
2022-11-30T16:35:57.384Z,-12.59
2022-11-30T16:38:27.586Z,-12.63
2022-11-30T16:40:57.299Z,-12.65
2022-11-30T16:43:26.907Z,-12.62
2022-11-30T16:45:56.385Z,-12.69
2022-11-30T16:48:25.372Z,-12.65
2022-11-30T16:51:00.987Z,-12.66
2022-11-30T16:53:29.969Z,-12.58
2022-11-30T16:55:58.989Z,-12.45
2022-11-30T16:58:28.086Z,-12.35
2022-11-30T17:01:00.323Z,-12.45
2022-11-30T17:03:32.651Z,-12.53
2022-11-30T17:06:03.221Z,-12.61
2022-11-30T17:08:32.321Z,-12.62
2022-11-30T17:11:01.725Z,-12.66
2022-11-30T17:13:30.754Z,-12.70
2022-11-30T17:15:59.834Z,-12.77
2022-11-30T17:18:28.781Z,-12.82
2022-11-30T17:21:03.716Z,-12.91
2022-11-30T17:23:32.929Z,-12.96
2022-11-30T17:26:01.917Z,-12.97
2022-11-30T17:28:30.905Z,-13.05
2022-11-30T17:31:00.079Z,-13.08
2022-11-30T17:33:33.428Z,-13.11
2022-11-30T17:36:06.907Z,-13.11
2022-11-30T17:38:37.226Z,-13.11
2022-11-30T17:41:10.399Z,-13.12
2022-11-30T17:43:42.264Z,-13.10
2022-11-30T17:46:13.206Z,-13.11
2022-11-30T17:48:43.182Z,-13.12
2022-11-30T17:51:14.330Z,-13.08
2022-11-30T17:53:44.414Z,-13.09
2022-11-30T17:56:15.959Z,-13.12
2022-11-30T17:58:46.474Z,-13.12
2022-11-30T18:01:18.960Z,-13.14
2022-11-30T18:03:48.811Z,-13.17
2022-11-30T18:06:22.069Z,-13.17
2022-11-30T18:08:51.084Z,-13.19
2022-11-30T18:11:21.977Z,-13.23
2022-11-30T18:13:53.625Z,-13.26
2022-11-30T18:16:25.046Z,-13.30
2022-11-30T18:18:56.375Z,-13.29
2022-11-30T18:21:29.413Z,-13.28
2022-11-30T18:23:59.520Z,-13.30
2022-11-30T18:26:29.046Z,-13.23
2022-11-30T18:29:00.506Z,-13.27
2022-11-30T18:31:31.882Z,-13.34
2022-11-30T18:34:02.670Z,-13.44
2022-11-30T18:36:34.849Z,-13.53
2022-11-30T18:39:04.107Z,-13.56
2022-11-30T18:41:33.392Z,-13.60
2022-11-30T18:44:02.567Z,-13.65
2022-11-30T18:46:31.974Z,-13.70
2022-11-30T18:49:01.793Z,-13.74
2022-11-30T18:51:33.197Z,-13.76
2022-11-30T18:54:03.899Z,-13.73
2022-11-30T18:56:34.521Z,-13.75
2022-11-30T18:59:06.052Z,-13.73
2022-11-30T19:01:36.105Z,-13.80
2022-11-30T19:04:07.426Z,-13.83
2022-11-30T19:06:39.240Z,-13.82
2022-11-30T19:09:10.941Z,-13.86
2022-11-30T19:11:41.002Z,-13.90
2022-11-30T19:14:13.080Z,-13.92
2022-11-30T19:16:43.115Z,-13.94
2022-11-30T19:19:14.230Z,-13.95
2022-11-30T19:21:47.975Z,-13.96
2022-11-30T19:24:17.767Z,-13.95
2022-11-30T19:26:46.969Z,-13.89
2022-11-30T19:29:16.156Z,-13.93
2022-11-30T19:31:45.191Z,-13.99
2022-11-30T19:34:14.321Z,-13.66
2022-11-30T19:36:43.454Z,-13.69
2022-11-30T19:39:13.877Z,-13.78
2022-11-30T19:41:42.881Z,-13.61
2022-11-30T19:44:14.935Z,-13.61
2022-11-30T19:46:44.403Z,-13.69
2022-11-30T19:49:13.710Z,-13.65
2022-11-30T19:51:42.696Z,-13.66
2022-11-30T19:54:13.276Z,-13.74
2022-11-30T19:56:43.310Z,-13.81
2022-11-30T19:59:12.441Z,-13.75
2022-11-30T20:01:41.880Z,-13.79
2022-11-30T20:04:11.107Z,-13.71
2022-11-30T20:06:40.657Z,-13.73
2022-11-30T20:09:12.001Z,-13.88
2022-11-30T20:11:42.514Z,-13.95
2022-11-30T20:14:17.038Z,-14.03
2022-11-30T20:16:46.248Z,-14.09
2022-11-30T20:19:16.793Z,-14.14
2022-11-30T20:21:45.940Z,-14.16
2022-11-30T20:24:15.475Z,-14.17
2022-11-30T20:26:47.101Z,-14.20
2022-11-30T20:29:17.583Z,-14.23
2022-11-30T20:31:48.488Z,-14.26
2022-11-30T20:34:18.211Z,-14.28
2022-11-30T20:36:47.206Z,-14.28
2022-11-30T20:39:16.270Z,-14.31
2022-11-30T20:41:46.656Z,-14.35
2022-11-30T20:44:17.004Z,-14.33
2022-11-30T20:46:46.131Z,-14.34
2022-11-30T20:49:17.969Z,-14.30
2022-11-30T20:51:47.345Z,-14.32
2022-11-30T20:54:17.888Z,-14.36
2022-11-30T20:56:51.075Z,-14.36
2022-11-30T20:59:23.830Z,-14.40
2022-11-30T21:01:53.172Z,-14.42
2022-11-30T21:04:25.828Z,-14.43
2022-11-30T21:06:55.422Z,-14.47
2022-11-30T21:09:24.452Z,-14.54
2022-11-30T21:11:54.908Z,-14.57
2022-11-30T21:14:24.048Z,-14.58
2022-11-30T21:16:53.034Z,-14.59
2022-11-30T21:19:22.215Z,-14.69
2022-11-30T21:21:51.207Z,-14.76
2022-11-30T21:24:21.281Z,-14.75
2022-11-30T21:26:50.355Z,-14.69
2022-11-30T21:29:20.790Z,-14.65
2022-11-30T21:31:49.812Z,-14.65
2022-11-30T21:34:18.972Z,-14.67
2022-11-30T21:36:48.987Z,-14.69
2022-11-30T21:39:17.957Z,-14.71
2022-11-30T21:41:47.004Z,-14.74
2022-11-30T21:44:17.170Z,-14.76
2022-11-30T21:46:48.514Z,-14.78
2022-11-30T21:49:17.882Z,-14.75
2022-11-30T21:51:47.132Z,-14.78
2022-11-30T21:54:16.099Z,-14.83
2022-11-30T21:56:46.084Z,-14.87
2022-11-30T21:59:16.034Z,-14.89
2022-11-30T22:01:47.660Z,-14.82
2022-11-30T22:04:17.056Z,-14.84
2022-11-30T22:06:46.106Z,-14.86
2022-11-30T22:09:16.666Z,-14.85
2022-11-30T22:11:46.696Z,-14.85
2022-11-30T22:14:17.914Z,-14.93
2022-11-30T22:16:48.426Z,-15.00
2022-11-30T22:19:18.333Z,-14.98
2022-11-30T22:21:50.248Z,-15.01
2022-11-30T22:24:19.909Z,-15.03
2022-11-30T22:26:50.123Z,-15.07
2022-11-30T22:29:22.331Z,-15.07
2022-11-30T22:31:55.884Z,-15.06
2022-11-30T22:34:24.855Z,-15.03
2022-11-30T22:36:53.958Z,-15.01
2022-11-30T22:39:23.231Z,-15.05
2022-11-30T22:41:55.585Z,-15.10
2022-11-30T22:44:25.758Z,-15.14
2022-11-30T22:46:56.406Z,-15.12
2022-11-30T22:49:25.820Z,-15.09
2022-11-30T22:51:54.905Z,-15.14
2022-11-30T22:54:23.794Z,-15.21
2022-11-30T22:56:52.790Z,-15.21
2022-11-30T22:59:21.659Z,-15.22
2022-11-30T23:01:51.625Z,-15.27
2022-11-30T23:04:23.797Z,-15.25
2022-11-30T23:06:53.187Z,-15.32
2022-11-30T23:09:24.025Z,-15.36
2022-11-30T23:11:52.995Z,-15.37
2022-11-30T23:14:21.993Z,-15.40
2022-11-30T23:16:50.945Z,-15.44
2022-11-30T23:19:21.316Z,-15.46
2022-11-30T23:21:50.685Z,-15.49
2022-11-30T23:24:21.524Z,-15.53
2022-11-30T23:26:51.011Z,-15.50
2022-11-30T23:29:20.059Z,-15.57
2022-11-30T23:31:49.550Z,-15.62
2022-11-30T23:34:21.244Z,-15.57
2022-11-30T23:36:51.921Z,-15.54
2022-11-30T23:39:21.393Z,-15.53
2022-11-30T23:41:50.603Z,-15.57
2022-11-30T23:44:19.798Z,-15.59
2022-11-30T23:46:49.741Z,-15.61
2022-11-30T23:49:18.764Z,-15.61
2022-11-30T23:51:47.802Z,-15.67
2022-11-30T23:54:18.196Z,-15.73
2022-11-30T23:56:48.680Z,-15.72
2022-11-30T23:59:17.655Z,-15.73
